sensor_id;sensor_type;location;lat;lon;timestamp;P1;durP1;ratioP1;P2;durP2;ratioP2
11829;SDS011;5972;42.134;24.718;2023-05-13T00:00:40;4.30;;;2.35;;
11829;SDS011;5972;42.134;24.718;2023-05-13T00:03:06;5.38;;;2.30;;
11829;SDS011;5972;42.134;24.718;2023-05-13T00:05:33;3.28;;;2.05;;
11829;SDS011;5972;42.134;24.718;2023-05-13T00:07:59;4.30;;;2.10;;
11829;SDS011;5972;42.134;24.718;2023-05-13T00:10:31;4.25;;;1.92;;
11829;SDS011;5972;42.134;24.718;2023-05-13T00:12:57;3.38;;;2.00;;
11829;SDS011;5972;42.134;24.718;2023-05-13T00:15:24;5.13;;;2.28;;
11829;SDS011;5972;42.134;24.718;2023-05-13T00:17:51;2.40;;;2.20;;
11829;SDS011;5972;42.134;24.718;2023-05-13T00:20:18;5.60;;;2.28;;
11829;SDS011;5972;42.134;24.718;2023-05-13T00:22:44;2.88;;;2.05;;
11829;SDS011;5972;42.134;24.718;2023-05-13T00:25:11;3.35;;;2.10;;
11829;SDS011;5972;42.134;24.718;2023-05-13T00:27:37;6.82;;;2.05;;
11829;SDS011;5972;42.134;24.718;2023-05-13T00:30:05;4.97;;;2.20;;
11829;SDS011;5972;42.134;24.718;2023-05-13T00:32:32;2.65;;;2.05;;
11829;SDS011;5972;42.134;24.718;2023-05-13T00:35:00;5.00;;;2.38;;
11829;SDS011;5972;42.134;24.718;2023-05-13T00:37:26;3.10;;;2.28;;
11829;SDS011;5972;42.134;24.718;2023-05-13T00:39:53;5.95;;;2.25;;
11829;SDS011;5972;42.134;24.718;2023-05-13T00:42:19;5.78;;;2.15;;
11829;SDS011;5972;42.134;24.718;2023-05-13T00:44:46;3.63;;;2.30;;
11829;SDS011;5972;42.134;24.718;2023-05-13T00:47:12;5.75;;;2.20;;
11829;SDS011;5972;42.134;24.718;2023-05-13T00:49:39;5.25;;;1.95;;
11829;SDS011;5972;42.134;24.718;2023-05-13T00:52:07;3.38;;;2.25;;
11829;SDS011;5972;42.134;24.718;2023-05-13T00:54:33;3.25;;;2.42;;
11829;SDS011;5972;42.134;24.718;2023-05-13T00:57:00;3.15;;;1.98;;
11829;SDS011;5972;42.134;24.718;2023-05-13T00:59:27;4.72;;;2.20;;
11829;SDS011;5972;42.134;24.718;2023-05-13T01:01:55;2.97;;;2.22;;
11829;SDS011;5972;42.134;24.718;2023-05-13T01:04:26;6.93;;;2.58;;
11829;SDS011;5972;42.134;24.718;2023-05-13T01:06:57;6.03;;;2.30;;
11829;SDS011;5972;42.134;24.718;2023-05-13T01:09:30;3.83;;;2.10;;
11829;SDS011;5972;42.134;24.718;2023-05-13T01:11:59;7.03;;;2.70;;
11829;SDS011;5972;42.134;24.718;2023-05-13T01:14:31;4.45;;;2.80;;
11829;SDS011;5972;42.134;24.718;2023-05-13T01:17:00;4.10;;;2.38;;
11829;SDS011;5972;42.134;24.718;2023-05-13T01:19:32;7.97;;;2.80;;
11829;SDS011;5972;42.134;24.718;2023-05-13T01:22:03;4.20;;;2.30;;
11829;SDS011;5972;42.134;24.718;2023-05-13T01:24:30;4.72;;;2.10;;
11829;SDS011;5972;42.134;24.718;2023-05-13T01:26:57;5.53;;;2.20;;
11829;SDS011;5972;42.134;24.718;2023-05-13T01:29:23;4.18;;;2.05;;
11829;SDS011;5972;42.134;24.718;2023-05-13T01:31:50;3.83;;;2.28;;
11829;SDS011;5972;42.134;24.718;2023-05-13T01:34:17;5.80;;;2.40;;
11829;SDS011;5972;42.134;24.718;2023-05-13T01:36:43;7.70;;;2.70;;
11829;SDS011;5972;42.134;24.718;2023-05-13T01:39:11;9.07;;;2.80;;
11829;SDS011;5972;42.134;24.718;2023-05-13T01:41:38;3.38;;;2.28;;
11829;SDS011;5972;42.134;24.718;2023-05-13T01:44:05;7.07;;;2.47;;
11829;SDS011;5972;42.134;24.718;2023-05-13T01:46:31;8.02;;;2.70;;
11829;SDS011;5972;42.134;24.718;2023-05-13T01:48:58;7.05;;;2.65;;
11829;SDS011;5972;42.134;24.718;2023-05-13T01:51:24;4.72;;;2.40;;
11829;SDS011;5972;42.134;24.718;2023-05-13T01:53:51;4.57;;;2.33;;
11829;SDS011;5972;42.134;24.718;2023-05-13T01:56:18;5.90;;;2.33;;
11829;SDS011;5972;42.134;24.718;2023-05-13T01:58:45;7.05;;;2.65;;
11829;SDS011;5972;42.134;24.718;2023-05-13T02:01:11;6.10;;;2.25;;
11829;SDS011;5972;42.134;24.718;2023-05-13T02:03:38;5.55;;;2.33;;
11829;SDS011;5972;42.134;24.718;2023-05-13T02:06:04;3.53;;;2.10;;
11829;SDS011;5972;42.134;24.718;2023-05-13T02:08:31;2.55;;;1.95;;
11829;SDS011;5972;42.134;24.718;2023-05-13T02:10:58;5.63;;;2.33;;
11829;SDS011;5972;42.134;24.718;2023-05-13T02:13:26;4.45;;;2.20;;
11829;SDS011;5972;42.134;24.718;2023-05-13T02:15:52;3.78;;;2.17;;
11829;SDS011;5972;42.134;24.718;2023-05-13T02:18:19;5.25;;;2.30;;
11829;SDS011;5972;42.134;24.718;2023-05-13T02:20:46;3.97;;;2.30;;
11829;SDS011;5972;42.134;24.718;2023-05-13T02:23:13;4.65;;;2.40;;
11829;SDS011;5972;42.134;24.718;2023-05-13T02:25:40;5.43;;;2.47;;
11829;SDS011;5972;42.134;24.718;2023-05-13T02:28:06;7.35;;;2.92;;
11829;SDS011;5972;42.134;24.718;2023-05-13T02:30:34;5.28;;;2.60;;
11829;SDS011;5972;42.134;24.718;2023-05-13T02:33:00;6.97;;;2.58;;
11829;SDS011;5972;42.134;24.718;2023-05-13T02:35:27;6.13;;;2.50;;
11829;SDS011;5972;42.134;24.718;2023-05-13T02:37:54;5.07;;;2.55;;
11829;SDS011;5972;42.134;24.718;2023-05-13T02:40:20;4.03;;;2.28;;
11829;SDS011;5972;42.134;24.718;2023-05-13T02:42:47;4.25;;;2.65;;
11829;SDS011;5972;42.134;24.718;2023-05-13T02:45:13;3.25;;;2.70;;
11829;SDS011;5972;42.134;24.718;2023-05-13T02:47:41;4.97;;;2.20;;
11829;SDS011;5972;42.134;24.718;2023-05-13T02:50:08;4.13;;;2.40;;
11829;SDS011;5972;42.134;24.718;2023-05-13T02:52:36;3.65;;;2.40;;
11829;SDS011;5972;42.134;24.718;2023-05-13T02:55:04;4.22;;;2.33;;
11829;SDS011;5972;42.134;24.718;2023-05-13T02:57:31;5.88;;;2.35;;
11829;SDS011;5972;42.134;24.718;2023-05-13T02:59:57;3.85;;;2.50;;
11829;SDS011;5972;42.134;24.718;2023-05-13T03:02:24;6.32;;;2.80;;
11829;SDS011;5972;42.134;24.718;2023-05-13T03:04:53;4.68;;;2.90;;
11829;SDS011;5972;42.134;24.718;2023-05-13T03:07:20;4.38;;;2.85;;
11829;SDS011;5972;42.134;24.718;2023-05-13T03:09:47;6.15;;;3.10;;
11829;SDS011;5972;42.134;24.718;2023-05-13T03:12:13;7.18;;;3.03;;
11829;SDS011;5972;42.134;24.718;2023-05-13T03:14:40;4.53;;;3.05;;
11829;SDS011;5972;42.134;24.718;2023-05-13T03:17:08;6.13;;;3.22;;
11829;SDS011;5972;42.134;24.718;2023-05-13T03:19:35;6.78;;;3.05;;
11829;SDS011;5972;42.134;24.718;2023-05-13T03:22:03;4.13;;;2.75;;
11829;SDS011;5972;42.134;24.718;2023-05-13T03:24:30;6.50;;;2.90;;
11829;SDS011;5972;42.134;24.718;2023-05-13T03:26:57;5.50;;;2.75;;
11829;SDS011;5972;42.134;24.718;2023-05-13T03:29:23;5.32;;;2.72;;
11829;SDS011;5972;42.134;24.718;2023-05-13T03:31:51;8.68;;;3.03;;
11829;SDS011;5972;42.134;24.718;2023-05-13T03:34:18;7.50;;;3.17;;
11829;SDS011;5972;42.134;24.718;2023-05-13T03:36:44;5.38;;;3.10;;
11829;SDS011;5972;42.134;24.718;2023-05-13T03:39:12;9.88;;;3.33;;
11829;SDS011;5972;42.134;24.718;2023-05-13T03:41:40;12.10;;;3.42;;
11829;SDS011;5972;42.134;24.718;2023-05-13T03:44:07;8.90;;;2.97;;
11829;SDS011;5972;42.134;24.718;2023-05-13T03:46:33;5.63;;;3.00;;
11829;SDS011;5972;42.134;24.718;2023-05-13T03:48:59;10.38;;;3.13;;
11829;SDS011;5972;42.134;24.718;2023-05-13T03:51:26;11.57;;;3.13;;
11829;SDS011;5972;42.134;24.718;2023-05-13T03:53:52;7.95;;;2.97;;
11829;SDS011;5972;42.134;24.718;2023-05-13T03:56:20;5.78;;;2.95;;
11829;SDS011;5972;42.134;24.718;2023-05-13T03:58:47;4.22;;;2.85;;
11829;SDS011;5972;42.134;24.718;2023-05-13T04:01:13;6.63;;;3.00;;
11829;SDS011;5972;42.134;24.718;2023-05-13T04:03:40;5.03;;;2.63;;
11829;SDS011;5972;42.134;24.718;2023-05-13T04:06:08;4.70;;;2.67;;
11829;SDS011;5972;42.134;24.718;2023-05-13T04:08:34;4.00;;;2.40;;
11829;SDS011;5972;42.134;24.718;2023-05-13T04:11:01;4.57;;;2.67;;
11829;SDS011;5972;42.134;24.718;2023-05-13T04:13:29;7.80;;;2.88;;
11829;SDS011;5972;42.134;24.718;2023-05-13T04:15:55;7.43;;;3.00;;
11829;SDS011;5972;42.134;24.718;2023-05-13T04:18:22;6.40;;;3.13;;
11829;SDS011;5972;42.134;24.718;2023-05-13T04:20:48;9.07;;;3.28;;
11829;SDS011;5972;42.134;24.718;2023-05-13T04:23:15;5.28;;;2.83;;
11829;SDS011;5972;42.134;24.718;2023-05-13T04:25:41;6.00;;;2.85;;
11829;SDS011;5972;42.134;24.718;2023-05-13T04:28:08;8.95;;;3.38;;
11829;SDS011;5972;42.134;24.718;2023-05-13T04:30:35;4.97;;;3.05;;
11829;SDS011;5972;42.134;24.718;2023-05-13T04:33:03;9.38;;;4.45;;
11829;SDS011;5972;42.134;24.718;2023-05-13T04:35:29;10.07;;;3.17;;
11829;SDS011;5972;42.134;24.718;2023-05-13T04:37:55;12.93;;;3.28;;
11829;SDS011;5972;42.134;24.718;2023-05-13T04:40:22;8.10;;;3.58;;
11829;SDS011;5972;42.134;24.718;2023-05-13T04:42:48;6.13;;;3.75;;
11829;SDS011;5972;42.134;24.718;2023-05-13T04:45:18;5.57;;;3.15;;
11829;SDS011;5972;42.134;24.718;2023-05-13T04:47:46;8.27;;;3.00;;
11829;SDS011;5972;42.134;24.718;2023-05-13T04:50:13;4.80;;;3.30;;
11829;SDS011;5972;42.134;24.718;2023-05-13T04:52:39;9.55;;;3.13;;
11829;SDS011;5972;42.134;24.718;2023-05-13T04:55:07;5.20;;;3.05;;
11829;SDS011;5972;42.134;24.718;2023-05-13T04:57:34;6.03;;;3.50;;
11829;SDS011;5972;42.134;24.718;2023-05-13T05:00:00;8.27;;;3.30;;
11829;SDS011;5972;42.134;24.718;2023-05-13T05:02:28;5.75;;;3.40;;
11829;SDS011;5972;42.134;24.718;2023-05-13T05:04:56;6.53;;;3.30;;
11829;SDS011;5972;42.134;24.718;2023-05-13T05:07:22;8.07;;;4.30;;
11829;SDS011;5972;42.134;24.718;2023-05-13T05:09:49;8.50;;;3.75;;
11829;SDS011;5972;42.134;24.718;2023-05-13T05:12:16;8.13;;;4.32;;
11829;SDS011;5972;42.134;24.718;2023-05-13T05:14:42;8.73;;;4.20;;
11829;SDS011;5972;42.134;24.718;2023-05-13T05:17:09;5.90;;;4.40;;
11829;SDS011;5972;42.134;24.718;2023-05-13T05:19:35;11.30;;;5.88;;
11829;SDS011;5972;42.134;24.718;2023-05-13T05:22:03;7.30;;;4.80;;
11829;SDS011;5972;42.134;24.718;2023-05-13T05:24:30;11.63;;;3.63;;
11829;SDS011;5972;42.134;24.718;2023-05-13T05:26:56;7.60;;;4.32;;
11829;SDS011;5972;42.134;24.718;2023-05-13T05:29:23;6.57;;;3.33;;
11829;SDS011;5972;42.134;24.718;2023-05-13T05:31:49;4.10;;;3.03;;
11829;SDS011;5972;42.134;24.718;2023-05-13T05:34:16;5.65;;;3.40;;
11829;SDS011;5972;42.134;24.718;2023-05-13T05:36:42;8.07;;;3.38;;
11829;SDS011;5972;42.134;24.718;2023-05-13T05:39:10;6.43;;;3.47;;
11829;SDS011;5972;42.134;24.718;2023-05-13T05:41:37;9.00;;;3.72;;
11829;SDS011;5972;42.134;24.718;2023-05-13T05:44:03;6.10;;;3.47;;
11829;SDS011;5972;42.134;24.718;2023-05-13T05:46:30;5.93;;;3.38;;
11829;SDS011;5972;42.134;24.718;2023-05-13T05:48:56;4.95;;;2.97;;
11829;SDS011;5972;42.134;24.718;2023-05-13T05:51:23;8.45;;;3.45;;
11829;SDS011;5972;42.134;24.718;2023-05-13T05:53:49;4.57;;;3.22;;
11829;SDS011;5972;42.134;24.718;2023-05-13T05:56:17;4.47;;;3.22;;
11829;SDS011;5972;42.134;24.718;2023-05-13T05:58:43;4.20;;;3.05;;
11829;SDS011;5972;42.134;24.718;2023-05-13T06:01:10;5.68;;;3.13;;
11829;SDS011;5972;42.134;24.718;2023-05-13T06:03:36;6.07;;;3.40;;
11829;SDS011;5972;42.134;24.718;2023-05-13T06:06:03;6.80;;;3.60;;
11829;SDS011;5972;42.134;24.718;2023-05-13T06:08:30;7.00;;;3.20;;
11829;SDS011;5972;42.134;24.718;2023-05-13T06:10:56;5.65;;;3.40;;
11829;SDS011;5972;42.134;24.718;2023-05-13T06:13:24;4.45;;;3.25;;
11829;SDS011;5972;42.134;24.718;2023-05-13T06:15:51;4.18;;;3.10;;
11829;SDS011;5972;42.134;24.718;2023-05-13T06:18:17;6.60;;;3.58;;
11829;SDS011;5972;42.134;24.718;2023-05-13T06:20:44;5.07;;;3.13;;
11829;SDS011;5972;42.134;24.718;2023-05-13T06:23:10;6.60;;;3.40;;
11829;SDS011;5972;42.134;24.718;2023-05-13T06:25:39;5.32;;;3.53;;
11829;SDS011;5972;42.134;24.718;2023-05-13T06:28:05;5.45;;;3.80;;
11829;SDS011;5972;42.134;24.718;2023-05-13T06:30:34;8.45;;;3.50;;
11829;SDS011;5972;42.134;24.718;2023-05-13T06:33:00;6.53;;;3.30;;
11829;SDS011;5972;42.134;24.718;2023-05-13T06:35:27;5.95;;;3.20;;
11829;SDS011;5972;42.134;24.718;2023-05-13T06:37:53;4.20;;;3.75;;
11829;SDS011;5972;42.134;24.718;2023-05-13T06:40:20;7.45;;;3.67;;
11829;SDS011;5972;42.134;24.718;2023-05-13T06:42:46;6.20;;;4.07;;
11829;SDS011;5972;42.134;24.718;2023-05-13T06:45:13;7.53;;;3.63;;
11829;SDS011;5972;42.134;24.718;2023-05-13T06:47:41;6.25;;;3.90;;
11829;SDS011;5972;42.134;24.718;2023-05-13T06:50:08;10.15;;;3.88;;
11829;SDS011;5972;42.134;24.718;2023-05-13T06:52:35;8.75;;;3.92;;
11829;SDS011;5972;42.134;24.718;2023-05-13T06:55:01;11.50;;;4.07;;
11829;SDS011;5972;42.134;24.718;2023-05-13T06:57:28;6.30;;;4.13;;
11829;SDS011;5972;42.134;24.718;2023-05-13T06:59:54;7.80;;;4.05;;
11829;SDS011;5972;42.134;24.718;2023-05-13T07:02:21;7.07;;;3.70;;
11829;SDS011;5972;42.134;24.718;2023-05-13T07:04:49;9.40;;;3.97;;
11829;SDS011;5972;42.134;24.718;2023-05-13T07:07:15;13.85;;;4.28;;
11829;SDS011;5972;42.134;24.718;2023-05-13T07:09:42;4.97;;;4.22;;
11829;SDS011;5972;42.134;24.718;2023-05-13T07:12:08;8.20;;;4.15;;
11829;SDS011;5972;42.134;24.718;2023-05-13T07:14:35;10.30;;;4.75;;
11829;SDS011;5972;42.134;24.718;2023-05-13T07:17:01;6.28;;;4.40;;
11829;SDS011;5972;42.134;24.718;2023-05-13T07:19:28;6.95;;;4.20;;
11829;SDS011;5972;42.134;24.718;2023-05-13T07:21:56;8.52;;;4.00;;
11829;SDS011;5972;42.134;24.718;2023-05-13T07:24:23;7.78;;;4.00;;
11829;SDS011;5972;42.134;24.718;2023-05-13T07:26:49;7.65;;;4.40;;
11829;SDS011;5972;42.134;24.718;2023-05-13T07:29:16;12.02;;;4.00;;
11829;SDS011;5972;42.134;24.718;2023-05-13T07:31:42;9.48;;;3.83;;
11829;SDS011;5972;42.134;24.718;2023-05-13T07:34:09;7.53;;;4.10;;
11829;SDS011;5972;42.134;24.718;2023-05-13T07:36:35;9.60;;;4.28;;
11829;SDS011;5972;42.134;24.718;2023-05-13T07:39:03;6.97;;;4.00;;
11829;SDS011;5972;42.134;24.718;2023-05-13T07:41:30;11.23;;;4.10;;
11829;SDS011;5972;42.134;24.718;2023-05-13T07:43:56;5.63;;;4.13;;
11829;SDS011;5972;42.134;24.718;2023-05-13T07:46:23;6.28;;;4.35;;
11829;SDS011;5972;42.134;24.718;2023-05-13T07:48:50;9.18;;;4.53;;
11829;SDS011;5972;42.134;24.718;2023-05-13T07:51:16;7.03;;;3.67;;
11829;SDS011;5972;42.134;24.718;2023-05-13T07:53:43;8.20;;;4.00;;
11829;SDS011;5972;42.134;24.718;2023-05-13T07:56:12;6.53;;;3.60;;
11829;SDS011;5972;42.134;24.718;2023-05-13T07:58:38;6.53;;;4.00;;
11829;SDS011;5972;42.134;24.718;2023-05-13T08:01:05;10.15;;;4.43;;
11829;SDS011;5972;42.134;24.718;2023-05-13T08:03:32;10.98;;;4.05;;
11829;SDS011;5972;42.134;24.718;2023-05-13T08:05:58;9.38;;;3.67;;
11829;SDS011;5972;42.134;24.718;2023-05-13T08:08:25;9.40;;;4.10;;
11829;SDS011;5972;42.134;24.718;2023-05-13T08:10:51;9.68;;;3.70;;
11829;SDS011;5972;42.134;24.718;2023-05-13T08:13:19;8.35;;;3.72;;
11829;SDS011;5972;42.134;24.718;2023-05-13T08:15:45;8.43;;;3.97;;
11829;SDS011;5972;42.134;24.718;2023-05-13T08:18:12;8.30;;;3.80;;
11829;SDS011;5972;42.134;24.718;2023-05-13T08:20:38;8.43;;;3.85;;
11829;SDS011;5972;42.134;24.718;2023-05-13T08:23:05;7.20;;;3.72;;
11829;SDS011;5972;42.134;24.718;2023-05-13T08:25:31;8.50;;;3.92;;
11829;SDS011;5972;42.134;24.718;2023-05-13T08:27:58;7.10;;;3.38;;
11829;SDS011;5972;42.134;24.718;2023-05-13T08:30:26;4.05;;;3.50;;
11829;SDS011;5972;42.134;24.718;2023-05-13T08:32:52;3.80;;;3.40;;
11829;SDS011;5972;42.134;24.718;2023-05-13T08:35:19;4.53;;;3.55;;
11829;SDS011;5972;42.134;24.718;2023-05-13T08:37:45;4.22;;;2.83;;
11829;SDS011;5972;42.134;24.718;2023-05-13T08:40:12;3.88;;;2.95;;
11829;SDS011;5972;42.134;24.718;2023-05-13T08:42:39;4.75;;;3.10;;
11829;SDS011;5972;42.134;24.718;2023-05-13T08:45:08;4.00;;;3.33;;
11829;SDS011;5972;42.134;24.718;2023-05-13T08:47:41;5.03;;;2.90;;
11829;SDS011;5972;42.134;24.718;2023-05-13T08:50:09;4.85;;;2.83;;
11829;SDS011;5972;42.134;24.718;2023-05-13T08:52:37;8.52;;;3.00;;
11829;SDS011;5972;42.134;24.718;2023-05-13T08:55:04;11.10;;;3.13;;
11829;SDS011;5972;42.134;24.718;2023-05-13T08:57:31;4.90;;;2.83;;
11829;SDS011;5972;42.134;24.718;2023-05-13T08:59:58;5.75;;;2.80;;
11829;SDS011;5972;42.134;24.718;2023-05-13T09:02:24;7.22;;;3.35;;
11829;SDS011;5972;42.134;24.718;2023-05-13T09:04:53;4.47;;;3.20;;
11829;SDS011;5972;42.134;24.718;2023-05-13T09:07:20;4.15;;;2.60;;
11829;SDS011;5972;42.134;24.718;2023-05-13T09:09:46;5.38;;;2.03;;
11829;SDS011;5972;42.134;24.718;2023-05-13T09:14:54;2.65;;;1.92;;
11829;SDS011;5972;42.134;24.718;2023-05-13T09:17:21;3.55;;;2.40;;
11829;SDS011;5972;42.134;24.718;2023-05-13T09:19:47;7.45;;;2.72;;
11829;SDS011;5972;42.134;24.718;2023-05-13T09:22:17;3.20;;;2.30;;
11829;SDS011;5972;42.134;24.718;2023-05-13T09:24:51;6.82;;;2.53;;
11829;SDS011;5972;42.134;24.718;2023-05-13T09:27:20;3.00;;;2.08;;
11829;SDS011;5972;42.134;24.718;2023-05-13T09:29:57;3.72;;;2.00;;
11829;SDS011;5972;42.134;24.718;2023-05-13T09:32:23;4.80;;;2.30;;
11829;SDS011;5972;42.134;24.718;2023-05-13T09:34:50;4.05;;;2.25;;
11829;SDS011;5972;42.134;24.718;2023-05-13T09:37:18;2.53;;;2.20;;
11829;SDS011;5972;42.134;24.718;2023-05-13T09:39:45;4.57;;;2.05;;
11829;SDS011;5972;42.134;24.718;2023-05-13T09:42:13;4.03;;;2.20;;
11829;SDS011;5972;42.134;24.718;2023-05-13T09:44:40;2.63;;;2.00;;
11829;SDS011;5972;42.134;24.718;2023-05-13T09:47:09;4.63;;;2.13;;
11829;SDS011;5972;42.134;24.718;2023-05-13T09:49:36;2.97;;;2.25;;
11829;SDS011;5972;42.134;24.718;2023-05-13T09:52:03;3.33;;;2.15;;
11829;SDS011;5972;42.134;24.718;2023-05-13T09:54:35;3.90;;;2.35;;
11829;SDS011;5972;42.134;24.718;2023-05-13T09:57:02;3.35;;;2.08;;
11829;SDS011;5972;42.134;24.718;2023-05-13T09:59:30;3.33;;;1.98;;
11829;SDS011;5972;42.134;24.718;2023-05-13T10:01:56;3.10;;;2.25;;
11829;SDS011;5972;42.134;24.718;2023-05-13T10:04:25;4.30;;;2.25;;
11829;SDS011;5972;42.134;24.718;2023-05-13T10:06:52;2.85;;;2.08;;
11829;SDS011;5972;42.134;24.718;2023-05-13T10:09:19;2.17;;;1.98;;
11829;SDS011;5972;42.134;24.718;2023-05-13T10:11:47;5.88;;;2.30;;
11829;SDS011;5972;42.134;24.718;2023-05-13T10:14:19;2.65;;;2.33;;
11829;SDS011;5972;42.134;24.718;2023-05-13T10:16:46;4.05;;;2.38;;
11829;SDS011;5972;42.134;24.718;2023-05-13T10:19:12;4.68;;;2.10;;
11829;SDS011;5972;42.134;24.718;2023-05-13T10:21:39;2.72;;;2.13;;
11829;SDS011;5972;42.134;24.718;2023-05-13T10:24:06;4.32;;;2.00;;
11829;SDS011;5972;42.134;24.718;2023-05-13T10:26:32;6.13;;;2.38;;
11829;SDS011;5972;42.134;24.718;2023-05-13T10:29:00;3.75;;;2.33;;
11829;SDS011;5972;42.134;24.718;2023-05-13T10:31:27;4.22;;;2.70;;
11829;SDS011;5972;42.134;24.718;2023-05-13T10:33:54;2.58;;;2.08;;
11829;SDS011;5972;42.134;24.718;2023-05-13T10:39:12;6.18;;;2.42;;
11829;SDS011;5972;42.134;24.718;2023-05-13T10:44:25;3.15;;;2.00;;
11829;SDS011;5972;42.134;24.718;2023-05-13T10:46:54;3.63;;;1.95;;
11829;SDS011;5972;42.134;24.718;2023-05-13T10:49:21;3.67;;;2.17;;
11829;SDS011;5972;42.134;24.718;2023-05-13T10:51:48;3.25;;;1.95;;
11829;SDS011;5972;42.134;24.718;2023-05-13T10:54:18;3.13;;;1.83;;
11829;SDS011;5972;42.134;24.718;2023-05-13T10:56:45;2.38;;;1.80;;
11829;SDS011;5972;42.134;24.718;2023-05-13T10:59:12;2.80;;;1.80;;
11829;SDS011;5972;42.134;24.718;2023-05-13T11:01:40;3.58;;;2.00;;
11829;SDS011;5972;42.134;24.718;2023-05-13T11:04:10;3.55;;;1.95;;
11829;SDS011;5972;42.134;24.718;2023-05-13T11:06:38;3.88;;;2.35;;
11829;SDS011;5972;42.134;24.718;2023-05-13T11:09:05;4.15;;;2.00;;
11829;SDS011;5972;42.134;24.718;2023-05-13T11:11:32;3.35;;;1.98;;
11829;SDS011;5972;42.134;24.718;2023-05-13T11:14:06;6.18;;;1.92;;
11829;SDS011;5972;42.134;24.718;2023-05-13T11:16:33;2.97;;;1.77;;
11829;SDS011;5972;42.134;24.718;2023-05-13T11:19:02;2.10;;;1.80;;
11829;SDS011;5972;42.134;24.718;2023-05-13T11:21:29;2.63;;;2.00;;
11829;SDS011;5972;42.134;24.718;2023-05-13T11:23:56;2.72;;;1.90;;
11829;SDS011;5972;42.134;24.718;2023-05-13T11:26:23;2.95;;;2.05;;
11829;SDS011;5972;42.134;24.718;2023-05-13T11:28:56;3.78;;;2.00;;
11829;SDS011;5972;42.134;24.718;2023-05-13T11:31:23;3.38;;;2.30;;
11829;SDS011;5972;42.134;24.718;2023-05-13T11:34:10;2.47;;;1.98;;
11829;SDS011;5972;42.134;24.718;2023-05-13T11:36:37;3.80;;;1.95;;
11829;SDS011;5972;42.134;24.718;2023-05-13T11:39:04;2.90;;;1.90;;
11829;SDS011;5972;42.134;24.718;2023-05-13T11:41:31;3.17;;;1.60;;
11829;SDS011;5972;42.134;24.718;2023-05-13T11:43:57;2.33;;;2.10;;
11829;SDS011;5972;42.134;24.718;2023-05-13T11:46:27;4.90;;;1.95;;
11829;SDS011;5972;42.134;24.718;2023-05-13T11:48:53;5.43;;;2.10;;
11829;SDS011;5972;42.134;24.718;2023-05-13T11:51:21;3.67;;;2.00;;
11829;SDS011;5972;42.134;24.718;2023-05-13T11:53:49;3.50;;;1.90;;
11829;SDS011;5972;42.134;24.718;2023-05-13T11:56:17;3.70;;;2.20;;
11829;SDS011;5972;42.134;24.718;2023-05-13T11:58:43;3.65;;;2.00;;
11829;SDS011;5972;42.134;24.718;2023-05-13T12:01:13;2.75;;;1.80;;
11829;SDS011;5972;42.134;24.718;2023-05-13T12:03:39;6.43;;;1.95;;
11829;SDS011;5972;42.134;24.718;2023-05-13T12:06:06;2.25;;;1.80;;
11829;SDS011;5972;42.134;24.718;2023-05-13T12:08:34;4.93;;;2.08;;
11829;SDS011;5972;42.134;24.718;2023-05-13T12:11:00;4.10;;;2.25;;
11829;SDS011;5972;42.134;24.718;2023-05-13T12:13:28;2.53;;;2.08;;
11829;SDS011;5972;42.134;24.718;2023-05-13T12:15:54;8.98;;;1.90;;
11829;SDS011;5972;42.134;24.718;2023-05-13T12:18:21;5.28;;;2.08;;
11829;SDS011;5972;42.134;24.718;2023-05-13T12:20:47;4.70;;;2.10;;
11829;SDS011;5972;42.134;24.718;2023-05-13T12:23:13;3.72;;;2.10;;
11829;SDS011;5972;42.134;24.718;2023-05-13T12:25:43;2.85;;;1.85;;
11829;SDS011;5972;42.134;24.718;2023-05-13T12:28:11;7.15;;;1.83;;
11829;SDS011;5972;42.134;24.718;2023-05-13T12:30:41;2.95;;;1.90;;
11829;SDS011;5972;42.134;24.718;2023-05-13T12:33:13;3.85;;;1.80;;
11829;SDS011;5972;42.134;24.718;2023-05-13T12:35:40;2.25;;;1.70;;
11829;SDS011;5972;42.134;24.718;2023-05-13T12:38:07;2.75;;;1.73;;
11829;SDS011;5972;42.134;24.718;2023-05-13T12:40:33;4.20;;;1.75;;
11829;SDS011;5972;42.134;24.718;2023-05-13T12:43:01;2.63;;;1.80;;
11829;SDS011;5972;42.134;24.718;2023-05-13T12:45:28;5.88;;;1.95;;
11829;SDS011;5972;42.134;24.718;2023-05-13T12:47:55;4.22;;;1.88;;
11829;SDS011;5972;42.134;24.718;2023-05-13T12:50:22;2.78;;;1.98;;
11829;SDS011;5972;42.134;24.718;2023-05-13T12:52:49;2.83;;;1.90;;
11829;SDS011;5972;42.134;24.718;2023-05-13T12:55:15;3.75;;;2.25;;
11829;SDS011;5972;42.134;24.718;2023-05-13T12:57:42;5.13;;;2.00;;
11829;SDS011;5972;42.134;24.718;2023-05-13T13:00:12;5.03;;;2.00;;
11829;SDS011;5972;42.134;24.718;2023-05-13T13:02:39;3.72;;;2.00;;
11829;SDS011;5972;42.134;24.718;2023-05-13T13:05:06;2.72;;;1.90;;
11829;SDS011;5972;42.134;24.718;2023-05-13T13:07:32;5.72;;;1.70;;
11829;SDS011;5972;42.134;24.718;2023-05-13T13:09:59;2.72;;;2.30;;
11829;SDS011;5972;42.134;24.718;2023-05-13T13:12:25;4.15;;;1.80;;
11829;SDS011;5972;42.134;24.718;2023-05-13T13:14:52;3.08;;;1.83;;
11829;SDS011;5972;42.134;24.718;2023-05-13T13:17:19;3.33;;;1.88;;
11829;SDS011;5972;42.134;24.718;2023-05-13T13:19:46;4.68;;;1.92;;
11829;SDS011;5972;42.134;24.718;2023-05-13T13:22:12;3.28;;;1.80;;
11829;SDS011;5972;42.134;24.718;2023-05-13T13:24:39;3.92;;;1.85;;
11829;SDS011;5972;42.134;24.718;2023-05-13T13:27:05;3.80;;;1.92;;
11829;SDS011;5972;42.134;24.718;2023-05-13T13:29:32;4.03;;;2.20;;
11829;SDS011;5972;42.134;24.718;2023-05-13T13:31:58;6.55;;;2.15;;
11829;SDS011;5972;42.134;24.718;2023-05-13T13:34:26;4.85;;;1.90;;
11829;SDS011;5972;42.134;24.718;2023-05-13T13:36:53;2.75;;;1.80;;
11829;SDS011;5972;42.134;24.718;2023-05-13T13:39:19;7.55;;;2.17;;
11829;SDS011;5972;42.134;24.718;2023-05-13T13:41:46;3.30;;;1.92;;
11829;SDS011;5972;42.134;24.718;2023-05-13T13:44:12;2.45;;;2.13;;
11829;SDS011;5972;42.134;24.718;2023-05-13T13:46:39;2.47;;;2.03;;
11829;SDS011;5972;42.134;24.718;2023-05-13T13:49:05;4.00;;;2.15;;
11829;SDS011;5972;42.134;24.718;2023-05-13T13:51:33;10.00;;;2.60;;
11829;SDS011;5972;42.134;24.718;2023-05-13T13:54:02;7.80;;;2.60;;
11829;SDS011;5972;42.134;24.718;2023-05-13T13:56:28;3.15;;;1.80;;
11829;SDS011;5972;42.134;24.718;2023-05-13T13:58:55;3.50;;;1.83;;
11829;SDS011;5972;42.134;24.718;2023-05-13T14:01:21;2.83;;;1.70;;
11829;SDS011;5972;42.134;24.718;2023-05-13T14:03:48;2.63;;;1.95;;
11829;SDS011;5972;42.134;24.718;2023-05-13T14:06:14;2.53;;;1.83;;
11829;SDS011;5972;42.134;24.718;2023-05-13T14:08:42;3.17;;;2.05;;
11829;SDS011;5972;42.134;24.718;2023-05-13T14:11:09;2.45;;;1.95;;
11829;SDS011;5972;42.134;24.718;2023-05-13T14:13:36;2.85;;;2.20;;
11829;SDS011;5972;42.134;24.718;2023-05-13T14:16:03;5.28;;;1.90;;
11829;SDS011;5972;42.134;24.718;2023-05-13T14:18:29;2.75;;;1.80;;
11829;SDS011;5972;42.134;24.718;2023-05-13T14:20:56;2.80;;;1.80;;
11829;SDS011;5972;42.134;24.718;2023-05-13T14:23:22;3.13;;;1.95;;
11829;SDS011;5972;42.134;24.718;2023-05-13T14:25:50;4.82;;;1.90;;
11829;SDS011;5972;42.134;24.718;2023-05-13T14:28:16;3.03;;;2.10;;
11829;SDS011;5972;42.134;24.718;2023-05-13T14:30:43;4.85;;;2.00;;
11829;SDS011;5972;42.134;24.718;2023-05-13T14:33:09;8.30;;;2.15;;
11829;SDS011;5972;42.134;24.718;2023-05-13T14:35:36;7.15;;;1.90;;
11829;SDS011;5972;42.134;24.718;2023-05-13T14:38:02;2.78;;;1.83;;
11829;SDS011;5972;42.134;24.718;2023-05-13T14:40:29;3.50;;;1.90;;
11829;SDS011;5972;42.134;24.718;2023-05-13T14:42:59;3.08;;;1.90;;
11829;SDS011;5972;42.134;24.718;2023-05-13T14:45:26;3.53;;;1.83;;
11829;SDS011;5972;42.134;24.718;2023-05-13T14:47:52;1.98;;;1.60;;
11829;SDS011;5972;42.134;24.718;2023-05-13T14:50:19;3.47;;;2.00;;
11829;SDS011;5972;42.134;24.718;2023-05-13T14:52:45;3.97;;;1.80;;
11829;SDS011;5972;42.134;24.718;2023-05-13T14:55:12;2.67;;;1.90;;